메인 페이지
METAR-TAF:

METAR-TAF

공항 :

시우다드후아레스, 멕시코

위도: 31-38N, 경도: 106-26W, 고도: 1171m

현재 날씨관측

예보는 1 시간 32분 전, 21:40시(UTC)에 발표되었습니다.
북북동5kt
온도 41°C
습도 9%
기압 1015 hPa
시정: 16.1km
고도 4000ft 상공 구름 조금, 타워링 적운.

METAR: MMCS 132140Z 03005KT 10SM FEW040TCU 41/02 A2997 RMK 8/200 PRESFR

시각: 17:12 (23:12 UTC)

예보

예보는 5 시간 51분 전, 17:21시(UTC)에 발표되었습니다.
예보 대상 시간: 13일 18시부터 14일 18시까지 (UTC)
12kt
시정: 10km
맑음
14일 0600시부터 (UTC)
kt
시정: 10km
맑음

TAF: MMCS 131721Z 1318/1418 09012KT P6SM SKC FM140600 00000KT P6SM SKC

4,000개 이상의 공항 관측 자료 및 예보 (METAR 및 TAF 보고).

지도상에서 검색 가능한 기상관측소가 노란 점과 빨간 점으로 표시되어 있습니다.

기상관측소 명을 보려면 표시 위로 마우스를 이동하세요.

날씨 관측과 예보를 보려면 클릭하세요.

지도 변경 : 확대하려면 엑스 표시가 있는 녹색 버튼, 축소하려면 빼기 표시가 있는 녹색 버튼, 다음 페이지의 지도를 보려면 녹색 화살표를 클릭하세요.


METAR-TAF: